Time;durP1;ratioP1;P1;durP2;ratioP2;P2;SDS_P1;SDS_P2;PMS_P1;PMS_P2;Temp;Humidity;BMP_temperature;BMP_pressure;BME280_temperature;BME280_humidity;BME280_pressure;Samples;Min_cycle;Max_cycle;Signal;HPM_P1;HPM_P2
2022/05/15 00:01:33;;;;;;;14.57;7.68;;;;;;;30.99;58.83;100873.63;5098022;27;66055;-36
2022/05/15 00:04:04;;;;;;;13.93;9.60;;;;;;;31.14;63.35;100887.66;5101996;27;70105;-37
2022/05/15 00:06:35;;;;;;;16.50;10.57;;;;;;;31.22;65.78;100900.09;5065968;27;66292;-37
2022/05/15 00:09:06;;;;;;;16.15;11.40;;;;;;;31.29;67.49;100903.59;5102514;27;70435;-37
2022/05/15 00:11:38;;;;;;;14.50;12.57;;;;;;;31.16;69.40;100888.25;5064834;27;65064;-38
2022/05/15 00:14:09;;;;;;;18.67;13.32;;;;;;;31.36;69.43;100906.25;5098219;27;69663;-36
2022/05/15 00:16:40;;;;;;;16.48;13.00;;;;;;;30.97;70.40;100848.63;5098130;27;66972;-35
2022/05/15 00:19:12;;;;;;;23.20;14.07;;;;;;;31.46;71.18;100912.00;5101288;27;69083;-37
2022/05/15 00:21:43;;;;;;;15.35;13.10;;;;;;;31.45;72.22;100904.91;5098935;27;65606;-38
2022/05/15 00:24:14;;;;;;;28.67;13.90;;;;;;;31.53;74.26;100923.59;5101457;27;69953;-36
2022/05/15 00:26:45;;;;;;;24.65;14.20;;;;;;;31.51;75.42;100925.72;5100114;27;66334;-37
2022/05/15 00:29:16;;;;;;;23.58;13.07;;;;;;;31.44;76.26;100924.94;5101978;27;70838;-37
2022/05/15 00:31:47;;;;;;;24.58;15.07;;;;;;;31.35;77.48;100931.69;5101619;27;67460;-37
2022/05/15 00:34:18;;;;;;;23.45;15.68;;;;;;;31.37;77.75;100935.00;5072341;27;69307;-36
2022/05/15 00:36:49;;;;;;;29.10;16.90;;;;;;;31.31;77.89;100927.75;5096933;27;64624;-36
2022/05/15 00:39:20;;;;;;;31.53;17.13;;;;;;;31.40;77.72;100934.59;5081936;27;69873;-36
2022/05/15 00:41:51;;;;;;;25.60;16.02;;;;;;;31.44;77.43;100943.91;5080199;27;66347;-36
2022/05/15 00:44:23;;;;;;;24.40;14.85;;;;;;;31.47;78.02;100945.34;5099808;27;70245;-39
2022/05/15 00:46:54;;;;;;;22.92;14.20;;;;;;;31.47;78.04;100946.19;5099344;27;66476;-42
2022/05/15 00:49:25;;;;;;;17.15;12.45;;;;;;;31.54;74.24;100936.13;5100702;27;69341;-39
2022/05/15 00:52:05;;;;;;;14.65;11.82;;;;;;;31.74;74.27;100956.78;5082986;27;65435;-38
2022/05/15 00:54:44;;;;;;;15.20;11.68;;;;;;;30.78;73.05;100784.59;5100722;27;69202;-39
2022/05/15 00:57:47;;;;;;;18.23;12.85;;;;;;;31.30;73.83;100869.19;5100236;27;65631;-39
2022/05/15 01:00:23;;;;;;;14.13;12.35;;;;;;;32.00;71.87;100945.66;5099196;27;69751;-38
2022/05/15 01:03:26;;;;;;;15.05;11.77;;;;;;;31.93;73.69;100944.91;5100964;27;66737;-38
2022/05/15 01:05:57;;;;;;;19.98;12.55;;;;;;;32.02;73.35;100948.97;5066400;27;69796;-39
2022/05/15 01:08:31;;;;;;;21.98;13.57;;;;;;;31.91;74.77;100957.88;5080697;27;66169;-40
2022/05/15 01:11:10;;;;;;;27.35;15.68;;;;;;;31.78;75.15;100952.56;5100457;27;70619;-38
2022/05/15 01:13:44;;;;;;;23.30;14.13;;;;;;;31.79;75.48;100965.09;5095311;27;66086;-38
2022/05/15 01:16:20;;;;;;;25.85;14.45;;;;;;;31.78;75.76;100953.38;5082861;27;69624;-38
2022/05/15 01:18:56;;;;;;;20.95;13.50;;;;;;;31.77;75.92;100957.16;5083133;27;66393;-38
2022/05/15 01:21:53;;;;;;;17.02;12.65;;;;;;;31.19;75.49;100861.78;5082930;27;69326;-39
2022/05/15 01:24:25;;;;;;;20.58;13.07;;;;;;;31.75;75.94;100944.88;5101282;27;66674;-39
2022/05/15 01:27:00;;;;;;;20.23;13.38;;;;;;;31.72;75.80;100950.75;5101550;27;68974;-39
2022/05/15 01:29:35;;;;;;;23.83;13.35;;;;;;;31.77;75.73;100978.84;5081987;27;66130;-39
2022/05/15 01:32:07;;;;;;;22.73;14.07;;;;;;;31.78;75.92;100956.09;5079992;27;69883;-38
2022/05/15 01:34:40;;;;;;;22.77;14.60;;;;;;;31.81;75.72;100946.69;5081781;27;65610;-38
2022/05/15 01:37:11;;;;;;;22.45;13.63;;;;;;;31.74;75.50;100930.50;5081429;27;70604;-38
2022/05/15 01:39:43;;;;;;;25.80;14.60;;;;;;;31.84;75.72;100946.22;5083544;27;65660;-39
2022/05/15 01:42:14;;;;;;;25.05;13.50;;;;;;;31.85;75.71;100947.91;5091455;27;70008;-35
2022/05/15 01:44:46;;;;;;;22.40;12.50;;;;;;;31.96;73.34;100941.75;5094893;27;65409;-36
2022/05/15 01:47:17;;;;;;;18.63;11.70;;;;;;;32.08;72.24;100935.56;5087738;27;70039;-37
2022/05/15 01:49:49;;;;;;;31.43;13.20;;;;;;;32.21;71.69;100943.56;5092375;27;66611;-37
2022/05/15 01:52:20;;;;;;;15.20;11.73;;;;;;;32.28;70.91;100936.13;5100338;27;70209;-35
2022/05/15 01:54:51;;;;;;;21.27;11.80;;;;;;;32.35;70.92;100938.78;5084135;27;65609;-36
2022/05/15 01:57:25;;;;;;;22.02;12.40;;;;;;;32.44;70.28;100935.50;5083543;27;70634;-37
2022/05/15 01:59:56;;;;;;;22.33;12.18;;;;;;;32.41;69.97;100935.97;5081493;27;65435;-37
2022/05/15 02:02:30;;;;;;;17.65;11.23;;;;;;;32.37;69.91;100923.06;5081781;27;70155;-35
2022/05/15 02:05:01;;;;;;;16.60;10.38;;;;;;;32.61;69.49;100941.16;5101052;27;65445;-35
2022/05/15 02:07:33;;;;;;;15.30;10.45;;;;;;;32.64;69.48;100942.56;5099264;27;70456;-36
2022/05/15 02:10:06;;;;;;;11.73;10.43;;;;;;;32.64;69.66;100935.25;5101255;27;66346;-36
2022/05/15 02:12:38;;;;;;;17.70;10.43;;;;;;;32.70;69.55;100941.66;5075041;27;69197;-35
2022/05/15 02:15:09;;;;;;;12.23;9.30;;;;;;;32.73;69.48;100943.91;5080169;27;66538;-35
2022/05/15 02:17:40;;;;;;;;;;;;;;;32.44;70.96;100934.69;5082506;27;69645;-35
2022/05/15 02:20:14;;;;;;;15.20;10.23;;;;;;;32.76;68.82;100929.84;5100489;27;66060;-35
2022/05/15 02:22:45;;;;;;;12.55;9.90;;;;;;;32.87;68.58;100918.19;5101879;27;69227;-35
2022/05/15 02:25:16;;;;;;;12.38;11.07;;;;;;;32.90;68.46;100917.75;5082885;27;65595;-35
2022/05/15 02:27:48;;;;;;;15.13;12.07;;;;;;;32.88;68.10;100902.72;5081481;27;69541;-35
2022/05/15 02:30:20;;;;;;;;;;;;;;;32.69;69.14;100916.38;5099913;27;65979;-36
2022/05/15 02:32:51;;;;;;;28.48;12.68;;;;;;;32.93;67.98;100909.13;5100968;27;69933;-35
2022/05/15 02:35:23;;;;;;;19.05;12.38;;;;;;;33.04;67.74;100917.53;5082516;27;65553;-35
2022/05/15 02:37:54;;;;;;;14.68;11.48;;;;;;;32.91;67.61;100889.50;5078819;27;70288;-35
2022/05/15 02:40:26;;;;;;;23.60;13.27;;;;;;;32.81;68.41;100902.00;5063211;27;65279;-40
2022/05/15 02:42:57;;;;;;;28.67;14.77;;;;;;;32.74;68.96;100902.13;5077814;27;69382;-36
2022/05/15 02:45:29;;;;;;;23.80;14.63;;;;;;;32.83;69.45;100911.56;5094201;27;65519;-36
2022/05/15 02:48:00;;;;;;;23.80;15.13;;;;;;;32.77;69.57;100907.06;5096747;27;69280;-36
2022/05/15 02:53:20;;;;;;;22.48;15.23;;;;;;;32.79;69.72;100917.69;5096610;27;69278;-36
2022/05/15 02:55:51;;;;;;;24.80;15.25;;;;;;;32.80;69.28;100917.47;5096753;27;65718;-36
2022/05/15 02:58:23;;;;;;;22.90;18.00;;;;;;;32.80;69.82;100917.47;5079679;27;69926;-36
2022/05/15 03:00:54;;;;;;;37.38;18.60;;;;;;;32.78;69.30;100914.16;5078878;27;65391;-36
2022/05/15 03:03:26;;;;;;;23.23;18.65;;;;;;;32.78;69.22;100913.34;5079986;27;70434;-35
2022/05/15 03:05:57;;;;;;;26.02;16.58;;;;;;;32.87;68.89;100929.03;5093227;27;66207;-35
2022/05/15 03:08:28;;;;;;;23.87;18.50;;;;;;;32.87;69.00;100920.06;5094019;27;70246;-36
2022/05/15 03:10:59;;;;;;;26.77;22.70;;;;;;;32.89;69.13;100921.50;5096281;27;66689;-36
2022/05/15 03:13:31;;;;;;;28.90;20.40;;;;;;;32.83;68.25;100903.41;5079244;27;70089;-36
2022/05/15 03:16:03;;;;;;;25.58;16.65;;;;;;;32.51;68.00;100845.81;5096813;27;66639;-35
2022/05/15 03:18:45;;;;;;;17.77;14.55;;;;;;;33.00;67.80;100924.50;5094295;27;70974;-35
2022/05/15 03:21:30;;;;;;;25.53;16.30;;;;;;;33.02;68.56;100909.63;5099077;27;66793;-38
2022/05/15 03:24:06;;;;;;;40.15;23.30;;;;;;;32.35;68.96;100800.34;5081010;27;70035;-36
2022/05/15 03:26:40;;;;;;;37.53;24.92;;;;;;;32.43;68.57;100808.13;5091449;27;65801;-36
2022/05/15 03:29:13;;;;;;;23.38;19.13;;;;;;;33.07;68.61;100895.31;5095085;27;70201;-35
2022/05/15 03:31:44;;;;;;;22.02;18.73;;;;;;;33.07;68.42;100900.75;5096606;27;66275;-37
2022/05/15 03:34:16;;;;;;;27.08;19.38;;;;;;;33.01;67.85;100879.97;5097277;27;70283;-38
2022/05/15 03:36:51;;;;;;;21.73;18.48;;;;;;;33.18;67.74;100905.38;5079141;27;66280;-37
2022/05/15 03:39:23;;;;;;;22.75;18.23;;;;;;;33.21;67.10;100894.06;5094483;27;70463;-35
2022/05/15 03:41:54;;;;;;;18.35;14.48;;;;;;;33.24;66.61;100885.44;5097395;27;65976;-35
2022/05/15 03:44:25;;;;;;;20.03;17.77;;;;;;;33.22;66.93;100884.81;5078010;27;70265;-36
2022/05/15 03:46:55;;;;;;;22.30;18.88;;;;;;;33.27;66.89;100873.25;5077298;27;65475;-35
2022/05/15 03:49:26;;;;;;;27.67;20.47;;;;;;;33.33;66.76;100889.44;5078676;27;69609;-35
2022/05/15 03:51:57;;;;;;;24.45;20.90;;;;;;;33.34;66.55;100884.81;5078723;27;66430;-35
2022/05/15 03:54:28;;;;;;;23.77;20.87;;;;;;;33.36;66.38;100872.63;5095884;27;70761;-35
2022/05/15 03:57:01;;;;;;;25.20;21.75;;;;;;;33.33;66.24;100878.56;5095090;27;65459;-34
2022/05/15 03:59:35;;;;;;;26.02;23.27;;;;;;;33.43;66.43;100879.84;5095278;27;69830;-35
2022/05/15 04:02:09;;;;;;;28.88;25.40;;;;;;;33.43;66.60;100867.06;5095101;27;66696;-35
2022/05/15 04:04:42;;;;;;;36.38;30.73;;;;;;;33.41;66.81;100869.22;5080187;27;69596;-33
2022/05/15 04:07:14;;;;;;;;;;;;;;;33.18;66.57;100870.03;5077669;27;66181;-34
2022/05/15 04:09:45;;;;;;;25.08;20.90;;;;;;;33.38;65.57;100858.81;5098060;27;69950;-35
2022/05/15 04:12:16;;;;;;;28.38;22.33;;;;;;;33.51;65.96;100865.88;5096877;27;66184;-35
2022/05/15 04:14:47;;;;;;;23.85;20.92;;;;;;;33.51;65.54;100849.56;5080501;27;71006;-36
2022/05/15 04:17:18;;;;;;;24.50;20.48;;;;;;;33.49;65.59;100848.97;5080381;27;65936;-35
2022/05/15 04:19:49;;;;;;;26.33;21.17;;;;;;;33.48;65.49;100839.16;5071236;27;70243;-35
2022/05/15 04:22:20;;;;;;;20.13;17.98;;;;;;;33.54;65.42;100851.84;5092723;27;65281;-35
2022/05/15 04:24:51;;;;;;;24.52;16.25;;;;;;;33.56;65.00;100850.53;5080922;27;70956;-36
2022/05/15 04:27:24;;;;;;;16.85;14.25;;;;;;;33.57;64.77;100840.47;5044369;27;64676;-35
2022/05/15 04:29:55;;;;;;;21.60;16.48;;;;;;;33.59;64.99;100833.72;5095458;27;70282;-36
2022/05/15 04:32:26;;;;;;;22.30;18.50;;;;;;;33.53;64.93;100828.44;5090904;27;66068;-35
2022/05/15 04:34:58;;;;;;;24.63;18.20;;;;;;;33.59;64.49;100828.28;5095966;27;69219;-35
2022/05/15 04:37:28;;;;;;;17.23;15.50;;;;;;;33.61;64.10;100828.06;5095568;27;67621;-36
2022/05/15 04:40:00;;;;;;;15.65;14.27;;;;;;;33.64;64.01;100829.47;5096337;27;70031;-34
2022/05/15 04:42:31;;;;;;;16.90;14.88;;;;;;;33.65;63.36;100826.50;5097179;27;65315;-35
2022/05/15 04:45:02;;;;;;;17.10;15.30;;;;;;;33.68;63.60;100811.59;5101271;27;70913;-34
2022/05/15 04:47:33;;;;;;;16.17;13.32;;;;;;;33.68;62.67;100809.69;5081989;27;66054;-35
2022/05/15 04:50:05;;;;;;;18.13;11.00;;;;;;;33.75;62.43;100802.22;5080367;27;70499;-35
2022/05/15 04:52:35;;;;;;;12.95;11.70;;;;;;;33.72;62.35;100791.03;5100961;27;66253;-35
2022/05/15 04:55:07;;;;;;;13.30;12.25;;;;;;;33.78;62.79;100799.03;5099117;27;70149;-35
2022/05/15 04:57:38;;;;;;;16.35;13.75;;;;;;;33.71;62.60;100776.59;5099511;27;66658;-35
2022/05/15 05:00:17;;;;;;;15.43;13.83;;;;;;;33.77;62.67;100789.22;5099221;27;69951;-34
2022/05/15 05:02:49;;;;;;;15.27;13.70;;;;;;;33.72;62.84;100772.78;5079506;27;66804;-35
2022/05/15 05:05:20;;;;;;;17.02;12.57;;;;;;;33.78;62.94;100766.38;5101059;27;70597;-34
2022/05/15 05:07:51;;;;;;;17.80;12.07;;;;;;;33.75;63.12;100764.16;5102713;27;66362;-34
2022/05/15 05:10:22;;;;;;;13.67;12.13;;;;;;;33.78;63.19;100752.78;5099844;27;69691;-33
2022/05/15 05:12:53;;;;;;;13.23;11.93;;;;;;;33.67;61.43;100747.41;5103220;27;66368;-34
2022/05/15 05:15:24;;;;;;;15.18;11.52;;;;;;;33.43;59.28;100725.66;5085379;27;69294;-35
2022/05/15 05:17:56;;;;;;;11.50;10.40;;;;;;;33.37;58.10;100749.22;5082895;27;66098;-36
2022/05/15 05:20:27;;;;;;;12.27;11.20;;;;;;;33.30;57.49;100747.72;5102655;27;70425;-34
2022/05/15 05:22:58;;;;;;;15.20;11.50;;;;;;;33.11;57.45;100731.56;5102530;27;65710;-35
2022/05/15 05:25:28;;;;;;;12.27;10.13;;;;;;;33.00;57.38;100726.16;5101605;27;69830;-35
2022/05/15 05:28:00;;;;;;;11.73;10.27;;;;;;;33.02;56.58;100721.31;5101485;27;66021;-35
2022/05/15 05:30:31;;;;;;;18.77;10.57;;;;;;;32.93;55.59;100720.78;5099134;27;71663;-34
2022/05/15 05:33:03;;;;;;;11.35;10.20;;;;;;;32.83;54.72;100724.13;5097921;27;66026;-35
2022/05/15 05:35:36;;;;;;;10.30;9.32;;;;;;;32.39;53.62;100649.50;5099075;27;69857;-34
2022/05/15 05:38:07;;;;;;;11.93;9.65;;;;;;;32.72;53.44;100703.22;5080505;27;66594;-34
2022/05/15 05:40:39;;;;;;;9.60;8.47;;;;;;;32.55;52.44;100686.81;5097864;27;70144;-35
2022/05/15 05:43:10;;;;;;;9.32;8.45;;;;;;;32.60;52.37;100700.53;5099242;27;66364;-36
2022/05/15 05:45:41;;;;;;;17.60;8.52;;;;;;;32.60;52.53;100702.41;5095746;27;70494;-35
2022/05/15 05:48:12;;;;;;;9.38;7.40;;;;;;;32.60;51.82;100694.28;5099768;27;65392;-41
2022/05/15 05:50:44;;;;;;;10.38;8.55;;;;;;;32.52;51.45;100691.91;5096365;27;69542;-34
2022/05/15 05:53:14;;;;;;;8.60;7.65;;;;;;;32.49;50.44;100683.16;5100036;27;65865;-35
2022/05/15 05:55:45;;;;;;;10.60;8.05;;;;;;;32.46;50.10;100667.34;5081593;27;70083;-34
2022/05/15 05:58:17;;;;;;;7.68;6.97;;;;;;;32.36;49.56;100664.34;5096813;27;66041;-34
2022/05/15 06:00:47;;;;;;;7.10;6.57;;;;;;;32.47;49.40;100663.56;5099874;27;70410;-35
2022/05/15 06:06:08;;;;;;;10.18;7.15;;;;;;;32.38;50.11;100642.41;5099129;27;70208;-36
2022/05/15 06:08:40;;;;;;;12.30;6.63;;;;;;;32.46;49.85;100651.06;5097839;27;66340;-34
2022/05/15 06:11:12;;;;;;;8.85;6.93;;;;;;;32.47;49.37;100641.84;5097561;27;70183;-35
2022/05/15 06:13:43;;;;;;;6.95;6.28;;;;;;;32.27;48.84;100620.47;5079831;27;65621;-34
2022/05/15 06:16:14;;;;;;;9.73;6.80;;;;;;;32.47;48.65;100635.59;5098127;27;70433;-35
2022/05/15 06:18:46;;;;;;;6.85;6.18;;;;;;;32.37;48.32;100625.28;5098347;27;66178;-35
2022/05/15 06:21:17;;;;;;;;;;;;;;;32.23;48.17;100640.16;5083165;27;70052;-34
2022/05/15 06:23:48;;;;;;;7.57;6.68;;;;;;;32.52;48.77;100632.16;5100925;27;65915;-34
2022/05/15 06:26:19;;;;;;;13.57;6.40;;;;;;;32.53;49.91;100628.38;5081078;27;71514;-34
2022/05/15 06:28:49;;;;;;;8.07;5.70;;;;;;;32.56;49.18;100615.16;5064656;27;67002;-35
2022/05/15 06:31:21;;;;;;;10.02;7.20;;;;;;;32.55;48.54;100605.38;5096909;27;70388;-36
2022/05/15 06:33:52;;;;;;;6.50;5.93;;;;;;;32.57;47.91;100602.41;5075504;27;66646;-36
2022/05/15 06:36:23;;;;;;;12.02;5.63;;;;;;;32.55;47.54;100586.34;5098079;27;70339;-35
2022/05/15 06:38:54;;;;;;;5.80;5.30;;;;;;;32.46;47.06;100571.50;5100864;27;66823;-36
2022/05/15 06:41:25;;;;;;;10.65;5.57;;;;;;;32.62;46.95;100589.75;5098212;27;70665;-37
2022/05/15 06:43:57;;;;;;;5.97;5.27;;;;;;;32.61;46.44;100587.28;5080519;27;66995;-35
2022/05/15 06:46:28;;;;;;;9.70;5.38;;;;;;;32.60;45.63;100569.34;5093258;27;69148;-36
2022/05/15 06:48:59;;;;;;;5.65;5.13;;;;;;;32.66;45.89;100562.97;5100490;27;66094;-37
2022/05/15 06:51:30;;;;;;;7.60;4.90;;;;;;;32.63;45.20;100536.28;5100795;27;70049;-34
2022/05/15 06:54:01;;;;;;;7.30;5.45;;;;;;;32.67;45.14;100535.53;5099331;27;66066;-33
2022/05/15 06:59:22;;;;;;;5.68;5.18;;;;;;;32.69;45.04;100529.88;5063870;27;64247;-35
2022/05/15 07:01:53;;;;;;;5.00;4.70;;;;;;;32.72;44.71;100513.94;5101511;27;69434;-33
2022/05/15 07:04:24;;;;;;;5.50;5.10;;;;;;;32.57;44.43;100474.78;5065336;27;66411;-35
2022/05/15 07:06:56;;;;;;;5.07;4.63;;;;;;;32.76;44.29;100497.97;5099830;27;70284;-34
2022/05/15 07:09:27;;;;;;;5.93;5.00;;;;;;;32.78;44.39;100486.88;5100954;27;65987;-34
2022/05/15 07:11:58;;;;;;;4.68;4.35;;;;;;;32.75;43.45;100490.88;5083783;27;69901;-35
2022/05/15 07:14:30;;;;;;;5.85;4.30;;;;;;;32.75;43.39;100463.72;5082133;27;66980;-34
2022/05/15 07:17:01;;;;;;;4.88;4.45;;;;;;;32.75;43.29;100466.44;5083442;27;69625;-35
2022/05/15 07:19:33;;;;;;;5.03;4.72;;;;;;;32.66;42.94;100438.03;5062745;28;65652;-35
2022/05/15 07:22:05;;;;;;;4.83;3.80;;;;;;;32.78;42.80;100457.81;5100108;27;71236;-34
2022/05/15 07:24:39;;;;;;;4.90;4.55;;;;;;;32.82;43.01;100453.56;5100382;27;66094;-34
2022/05/15 07:27:11;;;;;;;4.63;4.22;;;;;;;32.80;42.98;100461.13;5065445;27;70161;-34
2022/05/15 07:29:42;;;;;;;4.28;3.97;;;;;;;32.83;43.40;100449.75;5077499;27;66130;-34
2022/05/15 07:32:13;;;;;;;4.68;4.28;;;;;;;32.83;43.07;100446.22;5083058;27;70405;-34
2022/05/15 07:34:44;;;;;;;4.55;4.07;;;;;;;32.72;42.99;100420.75;5100253;27;66916;-37
2022/05/15 07:37:17;;;;;;;4.53;4.03;;;;;;;32.82;42.86;100415.53;5083639;27;69812;-35
2022/05/15 07:39:47;;;;;;;11.85;4.65;;;;;;;32.82;42.82;100410.09;5082951;27;65228;-34
2022/05/15 07:42:18;;;;;;;4.10;3.83;;;;;;;32.83;42.79;100422.59;5082170;27;69661;-34
2022/05/15 07:44:50;;;;;;;4.22;3.92;;;;;;;32.78;42.76;100414.34;5082987;27;66332;-35
2022/05/15 07:47:21;;;;;;;4.20;3.90;;;;;;;32.82;42.82;100415.53;5082746;27;68792;-35
2022/05/15 07:49:52;;;;;;;6.18;3.88;;;;;;;32.84;43.18;100410.66;5082420;27;65917;-35
2022/05/15 07:52:24;;;;;;;4.88;4.25;;;;;;;32.82;43.23;100415.53;5096908;27;69886;-35
2022/05/15 07:54:55;;;;;;;7.38;3.83;;;;;;;32.80;42.92;100417.66;5044729;27;65086;-35
2022/05/15 07:57:26;;;;;;;6.47;3.70;;;;;;;32.80;43.54;100411.41;5097972;27;71429;-36
2022/05/15 07:59:57;;;;;;;4.30;3.85;;;;;;;32.81;43.65;100405.72;5074016;27;66051;-35
2022/05/15 08:02:32;;;;;;;4.32;3.92;;;;;;;32.82;43.99;100399.22;5078076;27;70186;-35
2022/05/15 08:08:10;;;;;;;4.50;4.13;;;;;;;32.36;44.33;100332.38;5098620;27;70412;-35
2022/05/15 08:10:46;;;;;;;11.15;5.22;;;;;;;32.88;47.78;100419.16;5078659;27;66069;-34
2022/05/15 08:13:25;;;;;;;7.05;5.50;;;;;;;32.93;47.11;100406.47;5092765;27;70504;-39
2022/05/15 08:15:55;;;;;;;6.05;5.20;;;;;;;32.93;48.98;100406.47;5098434;27;66246;-34
2022/05/15 08:24:05;;;;;;;7.03;4.97;;;;;;;32.93;47.52;100398.31;5102123;27;70411;-36
2022/05/15 08:26:37;;;;;;;6.30;5.63;;;;;;;32.92;46.83;100410.25;5082058;27;65653;-35
2022/05/15 08:29:08;;;;;;;10.00;5.32;;;;;;;32.92;47.62;100410.25;5102320;27;69226;-34
2022/05/15 08:31:40;;;;;;;8.25;6.07;;;;;;;33.05;52.04;100398.28;5085148;27;66038;-34
2022/05/15 08:34:12;;;;;;;10.00;5.70;;;;;;;33.24;54.62;100396.13;5103069;27;70424;-34
2022/05/15 08:36:44;;;;;;;6.13;5.53;;;;;;;33.37;56.66;100384.09;5102618;27;65648;-34
2022/05/15 08:39:16;;;;;;;7.95;7.00;;;;;;;33.49;57.87;100375.81;5083621;27;68851;-35
2022/05/15 08:42:09;;;;;;;8.70;6.90;;;;;;;33.63;58.61;100379.88;5084190;27;65696;-34
2022/05/15 08:44:46;;;;;;;10.95;7.63;;;;;;;33.18;59.51;100299.25;5089910;27;69421;-34
2022/05/15 08:47:32;;;;;;;13.38;9.70;;;;;;;33.75;59.65;100394.19;5102770;27;66280;-35
2022/05/15 08:50:12;;;;;;;11.52;10.02;;;;;;;33.41;60.82;100321.91;5094308;27;70295;-35
2022/05/15 08:52:53;;;;;;;15.05;10.02;;;;;;;33.93;61.07;100405.81;5102062;27;66486;-35
2022/05/15 08:55:35;;;;;;;9.63;8.73;;;;;;;33.34;61.35;100325.59;5065926;27;70128;-35
2022/05/15 08:58:15;;;;;;;9.70;8.63;;;;;;;33.51;60.99;100327.44;5083216;27;65227;-35
2022/05/15 09:00:50;;;;;;;8.90;7.47;;;;;;;33.53;61.23;100322.63;5084908;27;70782;-35
2022/05/15 09:03:31;;;;;;;11.30;8.48;;;;;;;34.00;61.27;100403.75;5084354;27;66476;-36
2022/05/15 09:06:15;;;;;;;8.77;7.93;;;;;;;34.00;61.41;100414.63;5099534;27;70304;-34
2022/05/15 09:09:22;;;;;;;9.20;8.30;;;;;;;34.10;61.94;100436.56;5098445;27;66567;-35
2022/05/15 09:11:59;;;;;;;11.13;7.47;;;;;;;34.19;61.42;100435.06;5103075;27;69506;-35
2022/05/15 09:14:42;;;;;;;11.55;8.48;;;;;;;34.25;61.86;100423.13;5073638;27;66270;-35
2022/05/15 09:17:45;;;;;;;9.40;7.97;;;;;;;34.18;61.97;100403.44;5061205;27;69877;-34
2022/05/15 09:20:18;;;;;;;8.68;7.95;;;;;;;34.26;62.12;100394.81;5085090;27;66631;-34
2022/05/15 09:23:07;;;;;;;8.20;7.50;;;;;;;34.20;62.39;100395.84;5082344;27;70033;-35
2022/05/15 09:25:38;;;;;;;9.82;7.95;;;;;;;34.24;62.04;100416.06;5103184;27;66550;-35
2022/05/15 09:28:12;;;;;;;10.73;7.95;;;;;;;34.29;61.85;100423.44;5101213;27;70705;-35
2022/05/15 09:30:46;;;;;;;10.13;8.15;;;;;;;33.73;61.77;100319.34;5103430;27;66785;-34
2022/05/15 09:33:55;;;;;;;13.60;8.40;;;;;;;34.20;62.21;100419.53;5084153;27;70136;-35
2022/05/15 09:36:36;;;;;;;8.82;7.20;;;;;;;34.30;62.42;100416.09;5079815;27;66045;-35
2022/05/15 09:39:17;;;;;;;8.38;7.53;;;;;;;33.34;62.55;100257.63;5100900;27;69681;-35
2022/05/15 09:44:53;;;;;;;19.98;8.10;;;;;;;34.34;62.84;100420.78;5080378;28;70009;-36
2022/05/15 09:47:36;;;;;;;14.90;7.10;;;;;;;33.83;62.22;100337.69;5072913;28;65855;-35
2022/05/15 09:50:42;;;;;;;12.02;7.32;;;;;;;34.23;62.67;100408.94;5076838;28;69699;-36
2022/05/15 09:53:43;;;;;;;8.00;7.20;;;;;;;34.24;62.55;100405.16;5061188;28;66834;-33
2022/05/15 09:56:20;;;;;;;11.95;7.00;;;;;;;34.31;62.55;100410.41;5059902;28;69732;-33
2022/05/15 09:59:02;;;;;;;12.07;7.07;;;;;;;34.34;62.88;100409.06;5075731;27;65484;-35
2022/05/15 10:01:48;;;;;;;12.07;7.07;;;;;;;34.12;62.50;100384.59;5075931;28;69578;-35
2022/05/15 10:04:29;;;;;;;11.45;7.78;;;;;;;34.21;63.15;100397.53;5079942;27;66240;-36
2022/05/15 10:07:03;;;;;;;10.83;7.70;;;;;;;34.47;62.45;100419.56;5057151;28;69640;-35
2022/05/15 10:09:40;;;;;;;19.02;7.93;;;;;;;34.61;61.69;100420.03;5073999;28;65908;-35
2022/05/15 10:12:16;;;;;;;15.82;8.98;;;;;;;34.50;63.06;100429.97;5057631;28;71010;-36
2022/05/15 10:15:00;;;;;;;13.65;8.00;;;;;;;33.90;62.69;100362.78;5062240;28;66198;-35
2022/05/15 10:17:32;;;;;;;9.65;8.57;;;;;;;34.38;63.26;100448.31;5058620;28;69443;-39
2022/05/15 10:20:25;;;;;;;11.48;7.53;;;;;;;34.37;63.47;100435.78;5059912;28;66379;-35
2022/05/15 10:22:58;;;;;;;14.55;8.77;;;;;;;34.32;63.58;100427.56;5057498;28;70525;-35
2022/05/15 10:25:29;;;;;;;14.80;8.15;;;;;;;34.30;63.75;100441.44;5059642;28;65243;-35
2022/05/15 10:28:22;;;;;;;13.25;8.27;;;;;;;34.18;64.23;100446.19;5060557;28;69916;-35
2022/05/15 10:31:18;;;;;;;8.55;7.68;;;;;;;34.17;64.08;100447.25;5060383;28;65436;-35
2022/05/15 10:33:59;;;;;;;10.73;7.78;;;;;;;33.48;63.90;100322.53;5056206;28;69933;-35
2022/05/15 10:36:57;;;;;;;9.23;7.63;;;;;;;34.19;64.00;100451.38;5057676;28;66231;-35
2022/05/15 10:39:39;;;;;;;7.50;7.00;;;;;;;34.20;63.61;100458.47;5057197;28;70031;-35
2022/05/15 10:42:39;;;;;;;7.63;6.90;;;;;;;34.12;64.20;100471.69;5071255;27;66073;-36
2022/05/15 10:45:25;;;;;;;7.82;7.07;;;;;;;34.14;64.21;100475.81;5084432;27;70370;-36
2022/05/15 10:48:14;;;;;;;7.82;7.10;;;;;;;34.18;64.24;100474.22;5076992;28;66052;-34
2022/05/15 10:50:50;;;;;;;8.65;7.65;;;;;;;34.20;64.33;100480.25;5078233;28;69885;-42
2022/05/15 10:57:24;;;;;;;7.85;7.05;;;;;;;34.02;64.45;100497.66;5035163;28;70309;-35
2022/05/15 11:00:07;;;;;;;7.75;6.68;;;;;;;34.14;64.29;100503.03;5036003;28;65377;-36
2022/05/15 11:02:56;;;;;;;9.50;6.85;;;;;;;34.03;64.55;100512.91;5073222;28;69523;-35
2022/05/15 11:05:33;;;;;;;7.63;6.90;;;;;;;33.66;64.03;100443.84;5076395;28;66644;-36
2022/05/15 11:08:22;;;;;;;9.57;6.45;;;;;;;34.21;63.88;100536.34;5077887;28;70052;-36
2022/05/15 11:11:05;;;;;;;11.18;6.55;;;;;;;34.40;63.10;100533.31;5077927;28;66577;-36
2022/05/15 11:13:54;;;;;;;12.63;6.70;;;;;;;34.41;62.78;100540.41;5073036;28;70522;-34
2022/05/15 11:16:31;;;;;;;7.15;6.15;;;;;;;34.58;62.27;100545.84;5071326;28;67032;-34
2022/05/15 11:19:15;;;;;;;7.75;6.28;;;;;;;34.62;62.34;100534.16;5079278;27;70342;-33
2022/05/15 11:22:31;;;;;;;7.70;6.20;;;;;;;34.67;62.20;100545.13;5075498;28;65725;-34
2022/05/15 11:25:34;;;;;;;8.38;6.43;;;;;;;34.10;61.90;100473.84;5004549;28;70585;-34
2022/05/15 11:28:15;;;;;;;6.97;6.28;;;;;;;34.21;61.86;100481.91;5005100;28;67104;-34
2022/05/15 11:31:01;;;;;;;7.10;6.50;;;;;;;34.55;63.58;100574.38;5065717;28;69737;-34
2022/05/15 11:33:44;;;;;;;8.13;6.88;;;;;;;34.37;64.00;100591.81;5071140;28;65726;-34
2022/05/15 11:36:29;;;;;;;12.55;6.90;;;;;;;34.31;64.79;100608.34;5078871;27;69641;-34
2022/05/15 11:39:14;;;;;;;9.95;7.70;;;;;;;34.31;65.25;100598.28;5075702;28;66098;-33
2022/05/15 11:42:08;;;;;;;13.07;7.60;;;;;;;34.24;66.12;100600.34;5072581;28;70297;-35
2022/05/15 11:44:44;;;;;;;8.20;7.47;;;;;;;34.18;66.35;100607.59;5075347;28;65433;-35
2022/05/15 11:47:15;;;;;;;9.93;7.97;;;;;;;34.18;67.29;100613.03;5073960;28;71446;-35
2022/05/15 11:50:09;;;;;;;8.57;7.72;;;;;;;33.58;66.79;100522.03;5078744;27;66755;-35
2022/05/15 11:53:08;;;;;;;8.73;7.63;;;;;;;33.65;67.80;100559.94;5081657;28;70496;-36
2022/05/15 11:55:50;;;;;;;9.25;7.55;;;;;;;34.09;67.77;100630.88;5078619;28;65259;-35
2022/05/15 11:58:27;;;;;;;10.02;7.57;;;;;;;34.12;67.89;100622.22;5081478;28;69774;-35
2022/05/15 12:01:38;;;;;;;9.55;8.48;;;;;;;34.00;68.00;100637.78;5079043;28;66545;-36
2022/05/15 12:04:35;;;;;;;10.43;8.05;;;;;;;33.82;65.68;100641.56;5068468;28;70762;-36
2022/05/15 12:07:11;;;;;;;10.55;9.60;;;;;;;33.76;63.92;100646.09;5059669;28;66074;-34
2022/05/15 12:09:44;;;;;;;23.13;9.50;;;;;;;33.63;62.79;100651.88;5075832;27;70311;-34
2022/05/15 12:15:21;;;;;;;13.48;9.93;;;;;;;33.36;60.91;100649.69;5075399;27;70341;-34
2022/05/15 12:18:01;;;;;;;10.77;9.35;;;;;;;33.27;59.35;100640.28;5073659;28;65528;-35
2022/05/15 12:20:38;;;;;;;14.27;9.27;;;;;;;33.10;58.61;100640.22;5081573;28;69752;-35
2022/05/15 12:23:17;;;;;;;14.75;8.95;;;;;;;32.43;57.49;100569.22;5095056;27;66246;-35